Time;durP1;ratioP1;P1;durP2;ratioP2;P2;SDS_P1;SDS_P2;PMS_P1;PMS_P2;Temp;Humidity;BMP_temperature;BMP_pressure;BME280_temperature;BME280_humidity;BME280_pressure;Samples;Min_cycle;Max_cycle;Signal;HPM_P1;HPM_P2
2021/12/16 00:09:34;;;;;;;11.20;4.33;;;8.80;99.90;;;;;;5063861;28;20702;-44
2021/12/16 00:31:28;;;;;;;8.83;5.27;;;8.80;99.90;;;;;;5065133;28;20257;-47
2021/12/16 00:34:03;;;;;;;10.30;5.53;;;8.80;99.90;;;;;;5068460;28;20218;-44
2021/12/16 00:36:34;;;;;;;11.13;5.27;;;8.80;99.90;;;;;;5063350;28;20201;-44
2021/12/16 00:39:04;;;;;;;11.57;6.10;;;8.80;99.90;;;;;;5074593;28;20198;-48
2021/12/16 00:41:31;;;;;;;11.80;5.90;;;8.80;99.90;;;;;;5059868;28;20198;-44
2021/12/16 00:44:04;;;;;;;13.23;5.70;;;8.80;99.90;;;;;;5059649;28;20202;-45
2021/12/16 00:46:55;;;;;;;11.07;5.90;;;8.80;99.90;;;;;;5068931;28;20229;-48
2021/12/16 00:49:33;;;;;;;12.20;6.10;;;8.80;99.90;;;;;;5063813;28;20206;-44
2021/12/16 00:54:53;;;;;;;14.47;6.60;;;8.80;99.90;;;;;;5068627;28;20193;-44
2021/12/16 00:57:20;;;;;;;9.80;6.03;;;8.80;99.90;;;;;;5065584;28;20367;-44
2021/12/16 00:59:50;;;;;;;14.73;6.07;;;8.80;99.90;;;;;;5057196;28;20221;-45
2021/12/16 01:02:34;;;;;;;10.93;6.47;;;8.80;99.90;;;;;;5063637;28;20225;-44
2021/12/16 01:05:20;;;;;;;10.90;6.23;;;8.80;99.90;;;;;;5076235;28;20217;-45
2021/12/16 01:08:11;;;;;;;9.10;5.83;;;8.80;99.90;;;;;;5077486;28;20846;-44
2021/12/16 01:36:05;;;;;;;15.77;7.63;;;8.70;99.90;;;;;;5064956;28;20198;-43
2021/12/16 01:39:07;;;;;;;14.67;7.90;;;8.70;99.90;;;;;;5062108;28;20226;-46
2021/12/16 01:47:25;;;;;;;18.43;7.80;;;8.70;99.90;;;;;;5071563;28;20216;-48
2021/12/16 01:50:00;;;;;;;18.67;8.57;;;8.70;99.90;;;;;;5073278;28;20214;-45
2021/12/16 01:55:34;;;;;;;23.47;9.27;;;8.70;99.90;;;;;;5020222;28;20222;-47
2021/12/16 01:58:11;;;;;;;23.13;9.70;;;8.70;99.90;;;;;;5067632;28;20215;-44
2021/12/16 02:00:52;;;;;;;17.90;9.13;;;8.70;99.90;;;;;;5061968;28;20218;-45
2021/12/16 02:03:25;;;;;;;23.60;9.53;;;8.70;99.90;;;;;;5069808;28;20305;-43
2021/12/16 02:06:01;;;;;;;17.50;10.07;;;8.70;99.90;;;;;;5064929;28;20868;-43
2021/12/16 02:08:33;;;;;;;24.87;9.83;;;8.70;99.90;;;;;;5076541;28;20198;-46
2021/12/16 02:11:22;;;;;;;23.73;10.70;;;8.70;99.90;;;;;;5066830;28;20241;-45
2021/12/16 02:27:53;;;;;;;22.33;11.27;;;8.70;99.90;;;;;;5077637;28;21005;-48
2021/12/16 02:33:51;;;;;;;26.87;12.47;;;8.70;99.90;;;;;;5069084;28;20290;-46
2021/12/16 02:36:26;;;;;;;23.70;11.67;;;8.70;99.90;;;;;;5065818;28;20199;-45
2021/12/16 02:38:57;;;;;;;28.33;12.80;;;8.70;99.90;;;;;;5065225;28;20200;-44
2021/12/16 02:41:25;;;;;;;34.67;12.47;;;8.70;99.90;;;;;;5062649;28;20297;-47
2021/12/16 02:49:18;;;;;;;41.70;13.20;;;8.60;99.90;;;;;;5075444;28;20226;-46
2021/12/16 02:51:46;;;;;;;27.93;12.27;;;8.60;99.90;;;;;;5063442;28;20187;-46
2021/12/16 02:54:14;;;;;;;26.13;11.87;;;8.60;99.90;;;;;;5071723;28;20225;-45
2021/12/16 02:56:41;;;;;;;30.70;14.03;;;8.60;99.90;;;;;;5063603;28;20369;-45
2021/12/16 02:59:08;;;;;;;32.97;12.93;;;8.60;99.90;;;;;;5064750;28;20210;-44
2021/12/16 03:01:41;;;;;;;30.63;12.47;;;8.60;99.90;;;;;;5050194;28;20206;-44
2021/12/16 03:04:12;;;;;;;26.67;12.00;;;8.60;99.90;;;;;;5074872;28;20286;-43
2021/12/16 03:06:40;;;;;;;27.00;13.27;;;8.60;99.90;;;;;;5069779;28;20194;-43
2021/12/16 03:09:10;;;;;;;23.00;12.47;;;8.60;99.90;;;;;;5068968;28;20297;-44
2021/12/16 03:11:46;;;;;;;30.07;13.77;;;8.60;99.90;;;;;;5061874;28;20824;-43
2021/12/16 03:17:12;;;;;;;28.60;13.63;;;8.60;99.90;;;;;;5066104;28;20343;-45
2021/12/16 03:19:52;;;;;;;31.00;13.87;;;8.60;99.90;;;;;;5064521;28;20321;-46
2021/12/16 03:22:38;;;;;;;27.70;14.07;;;8.60;99.90;;;;;;5065028;28;20194;-46
2021/12/16 03:25:16;;;;;;;31.87;13.57;;;8.60;99.90;;;;;;5076736;28;20573;-44
2021/12/16 03:28:20;;;;;;;27.97;13.27;;;8.60;99.90;;;;;;5065318;28;20252;-46
2021/12/16 03:31:05;;;;;;;33.67;14.07;;;8.60;99.90;;;;;;5077512;28;20206;-44
2021/12/16 03:33:54;;;;;;;30.63;14.50;;;8.60;99.90;;;;;;5060602;28;20218;-44
2021/12/16 03:36:29;;;;;;;30.43;15.10;;;8.60;99.90;;;;;;5070541;28;20199;-45
2021/12/16 03:39:00;;;;;;;38.80;15.60;;;8.60;99.90;;;;;;5069099;28;20194;-44
2021/12/16 03:41:32;;;;;;;33.53;15.27;;;8.60;99.90;;;;;;5060931;28;20211;-44
2021/12/16 03:44:06;;;;;;;34.17;15.10;;;8.60;99.90;;;;;;5061913;28;20194;-45
2021/12/16 03:46:37;;;;;;;35.60;16.83;;;8.60;99.90;;;;;;5067118;28;20232;-44
2021/12/16 03:49:09;;;;;;;37.00;15.93;;;8.60;99.90;;;;;;5055722;28;20206;-48
2021/12/16 03:51:40;;;;;;;35.73;16.43;;;8.60;99.90;;;;;;5074408;28;20206;-43
2021/12/16 03:54:13;;;;;;;29.53;16.07;;;8.60;99.90;;;;;;5062786;28;20232;-45
2021/12/16 03:56:43;;;;;;;39.73;17.93;;;8.60;99.90;;;;;;5071706;28;20259;-44
2021/12/16 03:59:18;;;;;;;35.60;16.83;;;8.50;99.90;;;;;;5063168;28;20191;-46
2021/12/16 04:01:56;;;;;;;44.90;17.70;;;8.60;99.90;;;;;;5060221;28;20207;-46
2021/12/16 04:04:30;;;;;;;35.80;17.53;;;8.60;99.90;;;;;;5056325;28;20573;-45
2021/12/16 04:06:57;;;;;;;40.83;17.73;;;8.60;99.90;;;;;;5070165;28;20701;-45
2021/12/16 04:09:25;;;;;;;40.17;18.30;;;8.60;99.90;;;;;;5063012;28;20218;-43
2021/12/16 04:12:11;;;;;;;37.03;17.03;;;8.60;99.90;;;;;;5051915;28;20203;-46
2021/12/16 04:14:41;;;;;;;45.57;18.37;;;8.60;99.90;;;;;;5071847;28;20230;-43
2021/12/16 04:17:11;;;;;;;42.97;18.20;;;8.60;99.90;;;;;;5059400;28;20198;-46
2021/12/16 04:19:50;;;;;;;38.27;17.23;;;8.60;99.90;;;;;;5065217;28;20283;-47
2021/12/16 04:22:27;;;;;;;44.87;17.83;;;8.60;99.90;;;;;;5064880;28;20219;-43
2021/12/16 04:24:56;;;;;;;41.87;19.47;;;8.60;99.90;;;;;;5061703;28;20225;-46
2021/12/16 04:27:22;;;;;;;44.13;19.13;;;8.60;99.90;;;;;;5062845;28;20260;-43
2021/12/16 04:29:52;;;;;;;46.83;18.20;;;8.60;99.90;;;;;;5060462;28;20230;-44
2021/12/16 04:32:19;;;;;;;47.20;17.73;;;8.60;99.90;;;;;;5077222;28;20229;-44
2021/12/16 04:34:47;;;;;;;51.83;19.53;;;8.60;99.90;;;;;;5066613;28;20218;-45
2021/12/16 04:37:14;;;;;;;58.20;18.53;;;8.60;99.90;;;;;;5065744;28;20903;-44
2021/12/16 04:39:44;;;;;;;50.00;18.23;;;8.60;99.90;;;;;;5065860;28;20245;-45
2021/12/16 04:42:14;;;;;;;44.30;19.20;;;8.60;99.90;;;;;;5065122;28;20541;-47
2021/12/16 04:44:43;;;;;;;53.40;20.23;;;8.60;99.90;;;;;;5065129;28;20318;-46
2021/12/16 04:47:13;;;;;;;50.87;20.53;;;8.60;99.90;;;;;;5070337;28;20943;-44
2021/12/16 04:49:41;;;;;;;50.97;20.50;;;8.60;99.90;;;;;;5064015;28;20683;-43
2021/12/16 04:52:11;;;;;;;46.73;19.33;;;8.60;99.90;;;;;;5053950;28;20222;-44
2021/12/16 04:54:39;;;;;;;44.97;18.87;;;8.60;99.90;;;;;;5066948;28;20304;-45
2021/12/16 04:57:09;;;;;;;47.80;21.17;;;8.60;99.90;;;;;;5061635;28;20202;-45
2021/12/16 04:59:38;;;;;;;53.17;20.73;;;8.60;99.90;;;;;;5068616;28;20602;-43
2021/12/16 05:02:08;;;;;;;43.73;19.00;;;8.60;99.90;;;;;;5079344;28;20202;-46
2021/12/16 05:05:13;;;;;;;53.57;19.77;;;8.60;99.90;;;;;;5052964;28;20202;-48
2021/12/16 05:07:44;;;;;;;50.03;19.53;;;8.60;99.90;;;;;;5058500;28;20206;-45
2021/12/16 05:10:24;;;;;;;51.10;20.00;;;8.60;99.90;;;;;;5071170;28;20768;-43
2021/12/16 05:13:06;;;;;;;47.40;19.83;;;8.60;99.90;;;;;;5064979;28;20205;-45
2021/12/16 05:15:38;;;;;;;45.57;17.67;;;8.70;99.90;;;;;;5063809;28;20206;-45
2021/12/16 05:18:09;;;;;;;47.73;19.47;;;8.70;99.90;;;;;;5058709;28;20256;-47
2021/12/16 05:20:44;;;;;;;48.40;19.57;;;8.70;99.90;;;;;;5062123;28;20319;-45
2021/12/16 05:26:14;;;;;;;55.87;20.80;;;8.70;99.90;;;;;;5062655;28;20228;-43
2021/12/16 05:28:47;;;;;;;42.73;18.33;;;8.70;99.90;;;;;;5080169;28;20206;-45
2021/12/16 05:31:14;;;;;;;44.30;17.60;;;8.70;99.90;;;;;;5073473;28;20616;-43
2021/12/16 05:33:45;;;;;;;48.80;18.63;;;8.70;99.90;;;;;;5077402;28;20217;-43
2021/12/16 05:36:13;;;;;;;48.17;17.33;;;8.70;99.90;;;;;;5060388;28;20704;-44
2021/12/16 05:38:40;;;;;;;45.17;18.03;;;8.70;99.90;;;;;;5047292;28;20293;-45
2021/12/16 05:41:11;;;;;;;46.80;17.63;;;8.70;99.90;;;;;;5062958;28;20312;-44
2021/12/16 05:43:39;;;;;;;44.63;18.33;;;8.70;99.90;;;;;;5065247;28;20293;-45
2021/12/16 05:46:09;;;;;;;35.10;17.47;;;8.70;99.90;;;;;;5071420;28;20201;-43
2021/12/16 05:48:40;;;;;;;41.13;16.03;;;8.70;99.90;;;;;;5064882;28;20825;-44
2021/12/16 05:51:09;;;;;;;43.20;16.77;;;8.70;99.90;;;;;;5071654;28;20222;-47
2021/12/16 05:53:38;;;;;;;38.40;15.87;;;8.70;99.90;;;;;;5049214;28;21074;-45
2021/12/16 05:56:13;;;;;;;37.20;15.67;;;8.70;99.90;;;;;;5068505;28;20202;-43
2021/12/16 05:58:40;;;;;;;38.43;16.23;;;8.70;99.90;;;;;;5061348;28;20550;-45
2021/12/16 06:01:11;;;;;;;34.27;16.20;;;8.70;99.90;;;;;;5066824;28;20947;-43
2021/12/16 06:03:40;;;;;;;40.93;16.17;;;8.70;99.90;;;;;;5063985;28;20211;-45
2021/12/16 06:06:07;;;;;;;32.23;15.50;;;8.70;99.90;;;;;;5072847;28;20607;-44
2021/12/16 06:08:34;;;;;;;35.77;15.43;;;8.70;99.90;;;;;;5057421;28;20641;-45
2021/12/16 06:11:21;;;;;;;36.20;14.90;;;8.70;99.90;;;;;;5059023;28;20225;-46
2021/12/16 06:14:01;;;;;;;36.30;15.37;;;8.70;99.90;;;;;;5059644;28;20797;-45
2021/12/16 06:27:33;;;;;;;27.90;13.70;;;8.80;99.90;;;;;;5065391;28;20221;-47
2021/12/16 06:29:59;;;;;;;29.60;14.77;;;8.70;99.90;;;;;;5063821;28;20225;-44
2021/12/16 06:32:26;;;;;;;32.93;14.00;;;8.80;99.90;;;;;;5073388;28;20754;-48
2021/12/16 06:34:54;;;;;;;29.60;14.63;;;8.80;99.90;;;;;;5068242;28;20238;-43
2021/12/16 06:37:21;;;;;;;31.87;15.10;;;8.70;99.90;;;;;;5073726;28;20198;-45
2021/12/16 06:39:48;;;;;;;35.83;14.27;;;8.80;99.90;;;;;;5052202;28;20218;-44
2021/12/16 06:42:29;;;;;;;31.13;13.83;;;8.80;99.90;;;;;;5071679;28;20206;-44
2021/12/16 06:45:05;;;;;;;26.23;13.00;;;8.80;99.90;;;;;;5073904;28;20189;-45
2021/12/16 06:47:33;;;;;;;28.50;13.57;;;8.80;99.90;;;;;;5058724;28;20214;-44
2021/12/16 06:50:00;;;;;;;34.30;14.13;;;8.80;99.90;;;;;;5083324;28;20222;-44
2021/12/16 06:52:33;;;;;;;31.77;13.17;;;8.80;99.90;;;;;;5073463;28;20578;-45
2021/12/16 06:55:09;;;;;;;31.07;13.10;;;8.80;99.90;;;;;;5065924;28;20288;-43
2021/12/16 06:57:42;;;;;;;26.63;12.00;;;8.80;99.90;;;;;;5070966;28;20292;-44
2021/12/16 07:00:18;;;;;;;30.83;11.80;;;8.80;99.90;;;;;;5076329;28;20222;-44
2021/12/16 07:02:55;;;;;;;25.93;11.10;;;8.80;99.90;;;;;;5066925;28;20202;-44
2021/12/16 07:05:24;;;;;;;22.37;11.27;;;8.80;99.90;;;;;;5069113;28;20204;-47
2021/12/16 07:07:51;;;;;;;25.30;11.67;;;8.80;99.90;;;;;;5061878;28;20805;-45
2021/12/16 07:10:19;;;;;;;26.47;11.43;;;8.80;99.90;;;;;;5057886;28;20276;-43
2021/12/16 07:12:48;;;;;;;23.73;10.77;;;8.80;99.90;;;;;;5075106;28;20948;-46
2021/12/16 07:15:21;;;;;;;24.43;11.57;;;8.80;99.90;;;;;;5073837;28;20225;-44
2021/12/16 07:17:49;;;;;;;28.70;11.67;;;8.80;99.90;;;;;;5062118;28;20511;-43
2021/12/16 07:20:18;;;;;;;27.77;11.13;;;8.80;99.90;;;;;;5066043;28;20714;-47
2021/12/16 07:22:45;;;;;;;20.90;11.00;;;8.80;99.90;;;;;;5068943;28;20217;-44
2021/12/16 07:25:12;;;;;;;24.87;10.80;;;8.90;99.90;;;;;;5068275;28;20198;-45
2021/12/16 07:27:39;;;;;;;26.40;10.97;;;8.90;99.90;;;;;;5042592;28;20199;-47
2021/12/16 07:30:08;;;;;;;23.43;11.20;;;8.90;99.90;;;;;;5069377;28;20707;-46
2021/12/16 07:32:36;;;;;;;25.50;11.13;;;8.90;99.90;;;;;;5073869;28;20207;-43
2021/12/16 07:35:04;;;;;;;29.27;11.60;;;8.90;99.90;;;;;;5074642;28;20243;-43
2021/12/16 07:37:31;;;;;;;23.93;11.83;;;8.90;99.90;;;;;;5073642;28;20230;-46
2021/12/16 07:40:00;;;;;;;25.43;11.43;;;8.90;99.90;;;;;;5068452;28;20218;-44
2021/12/16 07:42:31;;;;;;;30.90;13.73;;;8.90;99.90;;;;;;5058967;28;20272;-43
2021/12/16 07:44:58;;;;;;;30.43;12.13;;;8.90;99.90;;;;;;5063314;28;20210;-44
2021/12/16 07:47:25;;;;;;;28.20;12.90;;;8.90;99.90;;;;;;5064777;28;20827;-43
2021/12/16 07:49:53;;;;;;;31.53;13.17;;;8.90;99.90;;;;;;5064886;28;20226;-43
2021/12/16 07:52:23;;;;;;;25.10;12.27;;;8.90;99.90;;;;;;5067043;28;20205;-43
2021/12/16 07:54:49;;;;;;;31.43;11.83;;;8.90;99.90;;;;;;5062273;28;20218;-43
2021/12/16 07:57:16;;;;;;;25.90;11.40;;;8.90;99.90;;;;;;5060299;28;20831;-43
2021/12/16 07:59:42;;;;;;;20.03;10.33;;;8.90;99.90;;;;;;5072535;28;20706;-44
2021/12/16 08:02:11;;;;;;;24.97;10.47;;;8.90;99.90;;;;;;5064262;28;20198;-45
2021/12/16 08:04:42;;;;;;;19.00;9.53;;;8.90;99.90;;;;;;5065775;28;20225;-46
2021/12/16 08:07:14;;;;;;;21.37;8.63;;;8.90;99.90;;;;;;5057720;28;20210;-46
2021/12/16 08:09:41;;;;;;;16.93;9.20;;;8.90;99.90;;;;;;5068924;28;20224;-44
2021/12/16 08:12:12;;;;;;;16.13;8.50;;;8.90;99.90;;;;;;5052895;28;20221;-44
2021/12/16 08:14:39;;;;;;;21.00;8.70;;;9.00;99.90;;;;;;5071108;28;20230;-42
2021/12/16 08:17:06;;;;;;;14.87;8.60;;;9.00;99.90;;;;;;5065788;28;20206;-46
2021/12/16 08:19:33;;;;;;;10.20;5.43;;;9.00;99.90;;;;;;5067886;28;20230;-44
2021/12/16 08:21:59;;;;;;;19.47;8.73;;;9.00;99.90;;;;;;5067370;28;20210;-43
2021/12/16 08:24:28;;;;;;;17.50;9.43;;;9.00;99.90;;;;;;5062828;28;20216;-45
2021/12/16 08:26:54;;;;;;;14.47;8.50;;;9.00;99.90;;;;;;5067707;28;20202;-41
2021/12/16 08:29:24;;;;;;;18.27;8.50;;;9.00;99.90;;;;;;5061483;28;20217;-42
2021/12/16 08:31:51;;;;;;;15.87;8.50;;;9.00;99.90;;;;;;5071232;28;20232;-41
2021/12/16 08:34:18;;;;;;;22.23;9.13;;;9.00;99.90;;;;;;5061091;28;20230;-44
2021/12/16 08:36:45;;;;;;;15.73;8.30;;;9.00;99.90;;;;;;5058624;28;20182;-44
2021/12/16 08:39:12;;;;;;;17.97;8.13;;;9.00;99.90;;;;;;5068661;28;20202;-42
2021/12/16 08:41:44;;;;;;;13.47;7.53;;;9.00;99.90;;;;;;5056435;28;20205;-41
2021/12/16 08:44:11;;;;;;;14.00;7.93;;;9.00;99.90;;;;;;5055922;28;20214;-46
2021/12/16 08:46:42;;;;;;;16.63;7.50;;;9.00;99.90;;;;;;5075007;28;20198;-42
2021/12/16 08:49:10;;;;;;;13.43;7.83;;;9.00;99.90;;;;;;5067173;28;20562;-42
2021/12/16 08:51:40;;;;;;;17.93;8.57;;;9.00;99.90;;;;;;5062304;28;20272;-43
2021/12/16 08:54:07;;;;;;;13.00;7.20;;;9.00;99.90;;;;;;5067208;28;20198;-42
2021/12/16 08:56:34;;;;;;;12.43;6.80;;;9.00;99.90;;;;;;5060427;28;20206;-41
2021/12/16 08:59:05;;;;;;;14.70;7.70;;;9.00;99.90;;;;;;5058853;28;20698;-41
2021/12/16 09:01:35;;;;;;;18.20;6.67;;;9.00;99.90;;;;;;5067583;28;20693;-43
2021/12/16 09:04:02;;;;;;;11.40;7.00;;;9.00;99.90;;;;;;5067672;28;20191;-42
2021/12/16 09:06:29;;;;;;;17.07;7.47;;;9.00;99.90;;;;;;5068119;28;20194;-44
2021/12/16 09:08:56;;;;;;;15.17;7.03;;;9.10;99.90;;;;;;5070166;28;20207;-43
2021/12/16 09:11:25;;;;;;;10.53;7.17;;;9.10;99.90;;;;;;5062367;28;20321;-42
2021/12/16 09:13:56;;;;;;;11.07;6.77;;;9.10;99.90;;;;;;5062864;28;20204;-43
2021/12/16 09:16:27;;;;;;;15.00;6.70;;;9.10;99.90;;;;;;5071211;28;20217;-41
2021/12/16 09:18:55;;;;;;;13.03;6.33;;;9.10;99.90;;;;;;5067145;28;20269;-42
2021/12/16 09:21:25;;;;;;;16.30;7.20;;;9.10;99.90;;;;;;5061968;28;20215;-45
2021/12/16 09:23:53;;;;;;;12.87;6.30;;;9.10;99.90;;;;;;5070797;28;20201;-42
2021/12/16 09:26:20;;;;;;;14.60;6.43;;;9.20;99.90;;;;;;5064424;28;20210;-41
2021/12/16 09:28:48;;;;;;;15.53;6.97;;;9.20;99.90;;;;;;5052876;28;20202;-41
2021/12/16 09:31:18;;;;;;;13.57;7.40;;;9.20;99.90;;;;;;5069220;28;20228;-42
2021/12/16 09:33:50;;;;;;;13.90;6.60;;;9.20;99.90;;;;;;5064499;28;20189;-41
2021/12/16 09:36:20;;;;;;;16.87;6.93;;;9.20;99.90;;;;;;5071429;28;20233;-40
2021/12/16 09:38:48;;;;;;;12.07;7.33;;;9.30;99.90;;;;;;5065198;28;20194;-41
2021/12/16 09:41:15;;;;;;;14.30;7.03;;;9.30;99.90;;;;;;5072763;28;20236;-43
2021/12/16 09:43:44;;;;;;;12.77;6.50;;;9.30;99.90;;;;;;5052144;28;21123;-41
2021/12/16 09:46:15;;;;;;;15.20;6.30;;;9.30;99.90;;;;;;5073381;28;20210;-41
2021/12/16 09:48:43;;;;;;;12.50;6.40;;;9.30;99.90;;;;;;5062261;28;21045;-41
2021/12/16 09:51:16;;;;;;;14.13;6.57;;;9.30;99.90;;;;;;5069969;28;20218;-41
2021/12/16 09:53:44;;;;;;;14.07;6.17;;;9.30;99.90;;;;;;5066282;28;20225;-44
2021/12/16 09:56:12;;;;;;;13.53;6.90;;;9.40;99.90;;;;;;5075676;28;20209;-43
2021/12/16 09:58:42;;;;;;;9.80;4.67;;;9.40;99.90;;;;;;5060857;28;20201;-41
2021/12/16 10:01:10;;;;;;;14.87;5.87;;;9.40;99.90;;;;;;5061515;28;20233;-43
2021/12/16 10:03:39;;;;;;;10.60;5.60;;;9.40;99.90;;;;;;5073594;28;20198;-44
2021/12/16 10:06:06;;;;;;;11.00;5.27;;;9.40;99.90;;;;;;5070699;28;20278;-42
2021/12/16 10:08:35;;;;;;;15.73;4.47;;;9.40;99.90;;;;;;5066066;28;20551;-45
2021/12/16 10:11:02;;;;;;;8.70;3.90;;;9.40;99.90;;;;;;5070455;28;20226;-43
2021/12/16 10:13:40;;;;;;;11.33;4.77;;;9.40;99.90;;;;;;5068999;28;20822;-42
2021/12/16 10:18:53;;;;;;;12.20;4.33;;;9.40;99.90;;;;;;5068675;28;20335;-46
2021/12/16 10:21:23;;;;;;;13.37;4.17;;;9.40;99.90;;;;;;5073556;28;20225;-43
2021/12/16 10:23:52;;;;;;;17.33;4.00;;;9.40;99.90;;;;;;5066175;28;20201;-41
2021/12/16 10:26:21;;;;;;;8.57;4.07;;;9.40;99.90;;;;;;5076725;28;20203;-42
2021/12/16 10:28:52;;;;;;;10.67;3.60;;;9.40;99.90;;;;;;5070142;28;21919;-42
2021/12/16 10:31:23;;;;;;;11.17;3.10;;;9.40;99.90;;;;;;5071006;28;20317;-41
2021/12/16 10:33:52;;;;;;;9.30;3.20;;;9.40;99.90;;;;;;5069192;28;20277;-44
2021/12/16 10:36:21;;;;;;;13.90;3.43;;;9.40;99.90;;;;;;5077397;28;20226;-46
2021/12/16 10:38:53;;;;;;;10.37;3.70;;;9.40;99.90;;;;;;5071512;28;20306;-43
2021/12/16 10:41:23;;;;;;;13.77;3.33;;;9.40;99.90;;;;;;5071434;28;20222;-42
2021/12/16 10:43:54;;;;;;;8.33;3.53;;;9.40;99.90;;;;;;5058639;28;20213;-42
2021/12/16 10:46:25;;;;;;;10.93;3.50;;;9.40;99.90;;;;;;5069467;28;20208;-44
2021/12/16 10:48:54;;;;;;;8.87;3.53;;;9.40;99.90;;;;;;5076097;28;20197;-42
2021/12/16 10:51:28;;;;;;;8.67;3.13;;;9.50;99.90;;;;;;5073400;28;20222;-42
2021/12/16 10:54:19;;;;;;;13.27;3.37;;;9.50;99.90;;;;;;5076422;28;20380;-45
2021/12/16 10:56:54;;;;;;;9.67;4.10;;;9.50;99.90;;;;;;5062560;28;20214;-41
2021/12/16 10:59:25;;;;;;;10.90;3.83;;;9.50;99.90;;;;;;5065016;28;20377;-44
2021/12/16 11:02:01;;;;;;;9.63;3.70;;;9.50;99.90;;;;;;5070859;28;20190;-42
2021/12/16 11:04:33;;;;;;;11.80;4.53;;;9.50;99.90;;;;;;5057666;28;20563;-42
2021/12/16 11:07:05;;;;;;;9.80;3.77;;;9.50;99.90;;;;;;5074277;28;20186;-44
2021/12/16 11:09:50;;;;;;;16.70;5.10;;;9.50;99.90;;;;;;5072467;28;20219;-44
2021/12/16 11:12:25;;;;;;;11.40;5.03;;;9.60;99.90;;;;;;5071108;28;20220;-46
2021/12/16 11:14:57;;;;;;;9.40;5.73;;;9.60;99.90;;;;;;5066723;28;20201;-41
2021/12/16 11:17:26;;;;;;;12.40;6.20;;;9.60;99.90;;;;;;5066028;28;20195;-42
2021/12/16 11:19:57;;;;;;;14.57;6.80;;;9.50;99.90;;;;;;5068466;28;20922;-42
2021/12/16 11:22:29;;;;;;;18.97;6.77;;;9.60;99.90;;;;;;5075237;28;20218;-42
2021/12/16 11:24:57;;;;;;;14.90;6.90;;;9.60;99.90;;;;;;5071256;28;20245;-41
2021/12/16 11:27:32;;;;;;;13.50;7.07;;;9.60;99.90;;;;;;5065885;28;20199;-41
2021/12/16 11:30:19;;;;;;;20.53;8.27;;;9.60;99.90;;;;;;5068375;28;20239;-41
2021/12/16 11:32:48;;;;;;;17.77;7.47;;;9.60;99.90;;;;;;5055551;28;20666;-42
2021/12/16 11:35:36;;;;;;;11.70;6.80;;;9.60;99.90;;;;;;5077586;28;20682;-42
2021/12/16 11:38:13;;;;;;;18.27;6.27;;;9.60;99.90;;;;;;5072531;28;20663;-44
2021/12/16 11:41:24;;;;;;;13.63;6.17;;;9.60;99.90;;;;;;5072432;28;20297;-42
2021/12/16 11:44:16;;;;;;;10.73;4.23;;;9.70;99.90;;;;;;5052475;28;20210;-44
2021/12/16 11:46:47;;;;;;;15.40;4.93;;;9.80;99.90;;;;;;5069015;28;20949;-43
2021/12/16 11:49:22;;;;;;;10.27;3.50;;;9.80;99.90;;;;;;5061443;28;20844;-44
2021/12/16 11:51:56;;;;;;;11.20;3.50;;;9.90;99.90;;;;;;5071300;28;20885;-43
2021/12/16 11:54:26;;;;;;;13.67;3.07;;;9.90;99.90;;;;;;5071348;28;20202;-46
2021/12/16 11:56:58;;;;;;;14.63;3.37;;;9.90;99.90;;;;;;5072821;28;20845;-47
2021/12/16 11:59:30;;;;;;;7.83;2.53;;;9.90;99.90;;;;;;5066431;28;20586;-49
2021/12/16 12:01:57;;;;;;;12.13;3.00;;;9.90;99.90;;;;;;5076824;28;20206;-44
2021/12/16 12:04:28;;;;;;;17.37;3.77;;;10.00;99.90;;;;;;5058341;28;20213;-47
2021/12/16 12:06:55;;;;;;;11.13;3.00;;;10.00;99.90;;;;;;5066685;28;20188;-47
2021/12/16 12:09:34;;;;;;;13.57;2.83;;;10.00;99.90;;;;;;5059149;28;20198;-44
2021/12/16 12:12:01;;;;;;;11.20;3.20;;;9.90;99.90;;;;;;5064321;28;20198;-45
2021/12/16 12:14:34;;;;;;;12.90;3.23;;;9.90;99.90;;;;;;5059012;28;20205;-45
2021/12/16 12:17:06;;;;;;;9.77;2.60;;;9.90;99.90;;;;;;5062374;28;20223;-48
2021/12/16 12:19:33;;;;;;;8.80;2.27;;;9.90;99.90;;;;;;5067844;28;20228;-44
2021/12/16 12:22:02;;;;;;;8.50;2.90;;;9.90;99.90;;;;;;5067906;28;20206;-45
2021/12/16 12:24:32;;;;;;;12.53;2.67;;;9.80;99.90;;;;;;5075417;28;20650;-45
2021/12/16 12:27:01;;;;;;;14.90;2.40;;;9.80;99.90;;;;;;5063491;28;20664;-44
2021/12/16 12:29:30;;;;;;;12.67;3.20;;;9.70;99.90;;;;;;5071340;28;20227;-48
2021/12/16 12:32:05;;;;;;;16.10;2.90;;;9.70;99.90;;;;;;5061142;28;20205;-46
2021/12/16 12:34:32;;;;;;;14.30;3.27;;;9.70;99.90;;;;;;5075371;28;20209;-47
2021/12/16 12:37:02;;;;;;;8.70;2.83;;;9.70;99.90;;;;;;5062669;28;20221;-46
2021/12/16 12:39:32;;;;;;;9.33;2.87;;;9.70;99.90;;;;;;5071069;28;20209;-44
2021/12/16 12:41:59;;;;;;;14.37;3.77;;;9.70;99.90;;;;;;5067192;28;20206;-47
2021/12/16 12:44:26;;;;;;;13.03;4.00;;;9.70;99.90;;;;;;5067562;28;20209;-44
2021/12/16 12:46:53;;;;;;;10.23;3.10;;;9.70;99.90;;;;;;5073137;28;20202;-50
2021/12/16 12:49:26;;;;;;;11.67;3.57;;;9.60;99.90;;;;;;5063680;28;20946;-45
2021/12/16 12:52:01;;;;;;;8.43;3.13;;;9.60;99.90;;;;;;5053863;28;20214;-46
2021/12/16 12:54:32;;;;;;;12.13;3.47;;;9.60;99.90;;;;;;5068974;28;20195;-47
2021/12/16 12:57:02;;;;;;;8.70;3.83;;;9.50;99.90;;;;;;5067880;28;20563;-44
2021/12/16 12:59:36;;;;;;;17.40;3.53;;;9.50;99.90;;;;;;5073940;28;20222;-44
2021/12/16 13:02:14;;;;;;;7.67;2.80;;;9.50;99.90;;;;;;5061385;28;20217;-47
2021/12/16 13:04:49;;;;;;;11.27;3.20;;;9.50;99.90;;;;;;5065961;28;20239;-45
2021/12/16 13:07:16;;;;;;;9.37;3.13;;;9.50;99.90;;;;;;5056984;28;20209;-43
2021/12/16 13:09:46;;;;;;;13.90;3.50;;;9.50;99.90;;;;;;5064602;28;20308;-44
2021/12/16 13:12:34;;;;;;;12.17;3.80;;;9.50;99.90;;;;;;5065961;28;20305;-43
2021/12/16 13:15:11;;;;;;;9.97;3.73;;;9.50;99.90;;;;;;5067589;28;20201;-50
2021/12/16 13:23:38;;;;;;;11.93;3.60;;;9.50;99.90;;;;;;5075617;28;20220;-46
2021/12/16 13:26:27;;;;;;;11.67;3.10;;;9.50;99.90;;;;;;5067111;28;20195;-48
2021/12/16 13:29:02;;;;;;;8.30;2.80;;;9.50;99.90;;;;;;5068254;28;20190;-45
2021/12/16 13:31:35;;;;;;;10.07;2.97;;;9.50;99.90;;;;;;5061951;28;20274;-48
2021/12/16 13:34:03;;;;;;;13.37;3.60;;;9.50;99.90;;;;;;5055091;28;20202;-44
2021/12/16 13:36:42;;;;;;;10.80;3.33;;;9.60;99.90;;;;;;5074482;28;20214;-44
2021/12/16 13:39:11;;;;;;;11.33;3.60;;;9.60;99.90;;;;;;5056642;28;20209;-44
2021/12/16 13:41:54;;;;;;;11.53;3.33;;;9.60;99.90;;;;;;5065269;28;20194;-46
2021/12/16 13:44:37;;;;;;;17.30;4.50;;;9.60;99.90;;;;;;5067035;28;20202;-49
2021/12/16 13:47:12;;;;;;;12.50;2.73;;;9.60;99.90;;;;;;5072903;28;20264;-44
2021/12/16 13:59:29;;;;;;;7.60;2.53;;;9.50;99.90;;;;;;5067425;28;20198;-47
2021/12/16 14:02:00;;;;;;;9.87;3.17;;;9.50;99.90;;;;;;5067196;28;20979;-44
2021/12/16 14:04:52;;;;;;;13.23;3.43;;;9.50;99.90;;;;;;5061785;28;20201;-44
2021/12/16 14:07:51;;;;;;;10.97;2.70;;;9.50;99.90;;;;;;5063737;28;20227;-49
2021/12/16 14:10:28;;;;;;;9.77;2.83;;;9.50;99.90;;;;;;5048321;28;20236;-45
2021/12/16 14:16:13;;;;;;;9.83;2.40;;;9.50;99.90;;;;;;5070982;28;20223;-43
2021/12/16 14:25:00;;;;;;;9.17;2.83;;;9.30;99.90;;;;;;5051051;28;20202;-44
2021/12/16 14:38:55;;;;;;;11.77;2.90;;;9.00;99.90;;;;;;5036642;28;20231;-45
2021/12/16 14:41:50;;;;;;;14.53;3.03;;;8.90;99.90;;;;;;5056683;28;20222;-43
2021/12/16 14:47:17;;;;;;;7.70;2.37;;;8.90;99.90;;;;;;5072290;28;20340;-44
2021/12/16 14:49:47;;;;;;;12.60;3.10;;;8.90;99.90;;;;;;5066055;28;21474;-43
2021/12/16 14:52:15;;;;;;;9.47;3.27;;;8.80;99.90;;;;;;5061814;28;20205;-46
2021/12/16 14:54:51;;;;;;;10.60;3.53;;;8.80;99.90;;;;;;5049770;28;21269;-43
2021/12/16 14:57:23;;;;;;;13.27;3.60;;;8.80;99.90;;;;;;5072348;28;20214;-45
2021/12/16 14:59:52;;;;;;;12.43;3.03;;;8.80;99.90;;;;;;5072793;28;21976;-45
2021/12/16 15:02:22;;;;;;;9.50;2.67;;;8.70;99.90;;;;;;5079168;28;20228;-46
2021/12/16 15:04:49;;;;;;;10.23;3.50;;;8.70;99.90;;;;;;5065862;28;20659;-44
2021/12/16 15:07:15;;;;;;;9.03;2.50;;;8.70;99.90;;;;;;5067930;28;20210;-42
2021/12/16 15:09:43;;;;;;;12.20;3.43;;;8.70;99.90;;;;;;5071588;28;20273;-47
2021/12/16 15:12:16;;;;;;;9.67;3.30;;;8.70;99.90;;;;;;5054051;28;20213;-46
2021/12/16 15:15:04;;;;;;;15.80;4.30;;;8.70;99.90;;;;;;5061363;28;20207;-45
2021/12/16 15:31:40;;;;;;;11.17;3.70;;;8.70;99.90;;;;;;5070140;28;20219;-45
2021/12/16 15:32:37;;;;;;;12.23;3.50;;;8.60;99.90;;;;;;5066011;28;20195;-43
2021/12/16 15:38:04;;;;;;;10.37;2.70;;;8.60;99.90;;;;;;5054831;28;20222;-44
2021/12/16 15:40:37;;;;;;;8.80;3.80;;;8.50;99.90;;;;;;5065967;28;20317;-44
2021/12/16 15:43:07;;;;;;;7.43;3.47;;;8.50;99.90;;;;;;5063010;28;20204;-43
2021/12/16 15:45:38;;;;;;;8.30;3.30;;;8.50;99.90;;;;;;5066597;28;20716;-45
2021/12/16 15:48:09;;;;;;;11.60;3.50;;;8.50;99.90;;;;;;5073045;28;20216;-46
2021/12/16 15:50:42;;;;;;;11.70;4.27;;;8.40;99.90;;;;;;5076769;28;20270;-40